BBD weather

Curtis Field
Brady, Texas, United States

Public forecast

Using degrees Fahrenheit for public forecast. Weather courtesy of forecast.io.

Current aviation weather report (METAR) for Curtis Field

Retrieved 2020/08/08 06:15 UTC (3 minutes ago):

KBBD 080615Z AUTO 16008KT 10SM FEW049 28/18 A3008 RMK AO2

Aviation forecast (TAF) for Curtis Field

Retrieved 2020/08/08 06:22 UTC (0 seconds ago):

TAF KBBD 080520Z 0806/0906 15008KT P6SM FEW150 FM080900 16006KT P6SM FEW150 FM081400 17011G17KT P6SM FEW150 FM082100 14009KT P6SM FEW150